Time;durP1;ratioP1;P1;durP2;ratioP2;P2;SDS_P1;SDS_P2;PMS_P1;PMS_P2;Temp;Humidity;BMP_temperature;BMP_pressure;BME280_temperature;BME280_humidity;BME280_pressure;Samples;Min_cycle;Max_cycle;Signal;HPM_P1;HPM_P2
2022/06/16 00:04:37;;;;;;;1.98;1.10;;;;;;;;;;20748656;28;20268;-71
2022/06/16 00:14:39;;;;;;;2.03;0.98;;;;;;;;;;20748128;28;20221;-71
2022/06/16 00:24:41;;;;;;;2.47;1.02;;;;;;;;;;20746960;28;20197;-70
2022/06/16 00:34:43;;;;;;;1.48;0.85;;;;;;;;;;20733698;28;20265;-70
2022/06/16 00:44:50;;;;;;;1.80;0.93;;;;;;;;;;20713219;28;20286;-70
2022/06/16 00:55:01;;;;;;;1.52;0.90;;;;;;;;;;20744788;28;20265;-70
2022/06/16 01:05:02;;;;;;;1.80;0.95;;;27.90;93.30;;;;;;20725451;28;20286;-70
2022/06/16 01:15:17;;;;;;;2.00;0.90;;;;;;;;;;20715742;28;20285;-69
2022/06/16 01:25:34;;;;;;;1.67;0.85;;;;;;;;;;20734436;28;20269;-70
2022/06/16 01:36:10;;;;;;;1.42;1.00;;;24.60;94.00;;;;;;20741501;28;20227;-70
2022/06/16 01:46:26;;;;;;;3.10;1.05;;;24.80;97.30;;;;;;20740806;28;20261;-70
2022/06/16 01:56:42;;;;;;;1.45;0.90;;;;;;;;;;20739527;28;20222;-70
2022/06/16 02:06:47;;;;;;;1.63;1.02;;;;;;;;;;20737867;28;20272;-70
2022/06/16 02:16:49;;;;;;;1.25;1.00;;;;;;;;;;20738317;28;20253;-70
2022/06/16 02:26:54;;;;;;;1.75;0.88;;;;;;;;;;20738032;28;20704;-71
2022/06/16 02:37:27;;;;;;;1.75;0.88;;;24.40;87.10;;;;;;20738831;28;20224;-70
2022/06/16 02:47:54;;;;;;;1.77;0.80;;;;;;;;;;20737792;28;20213;-70
2022/06/16 02:58:00;;;;;;;1.85;0.77;;;24.20;90.90;;;;;;20738722;28;20202;-70
2022/06/16 03:08:14;;;;;;;1.58;0.85;;;;;;;;;;20805741;22;20706;-71
2022/06/16 03:18:18;;;;;;;3.17;0.95;;;23.80;98.20;;;;;;20815054;28;20224;-71
2022/06/16 03:28:20;;;;;;;2.03;1.10;;;;;;;;;;20815913;28;20243;-71
2022/06/16 03:48:24;;;;;;;1.33;0.75;;;;;;;;;;20830700;28;20221;-71
2022/06/16 03:58:27;;;;;;;1.75;1.00;;;;;;;;;;20814086;28;20698;-71
2022/06/16 04:08:29;;;;;;;1.90;0.88;;;;;;;;;;20828752;28;20237;-71
2022/06/16 04:18:32;;;;;;;1.48;0.80;;;;;;;;;;20828887;28;20230;-72
2022/06/16 04:28:34;;;;;;;2.63;0.70;;;;;;;;;;20748152;28;20639;-71
2022/06/16 04:38:37;;;;;;;2.17;0.80;;;;;;;;;;20761723;28;20214;-72
2022/06/16 04:48:39;;;;;;;2.42;1.00;;;;;;;;;;20722534;28;20213;-71
2022/06/16 04:58:45;;;;;;;1.67;1.00;;;;;;;;;;20736265;28;20248;-71
2022/06/16 05:09:23;;;;;;;1.02;0.75;;;23.90;97.70;;;;;;20664988;28;20302;-70
2022/06/16 05:20:04;;;;;;;2.08;1.10;;;24.00;99.90;;;;;;20605893;28;20704;-72
2022/06/16 05:30:31;;;;;;;4.38;0.95;;;;;;;;;;20729634;28;20758;-72
2022/06/16 05:40:57;;;;;;;1.80;0.70;;;;;;;;;;20767124;28;20230;-72
2022/06/16 05:51:12;;;;;;;2.20;0.90;;;24.10;99.90;;;;;;20748617;28;20706;-72
2022/06/16 06:01:25;;;;;;;0.80;0.70;;;;;;;;;;20814385;28;20548;-73
2022/06/16 06:22:06;;;;;;;0.80;0.70;;;24.10;99.90;;;;;;20685809;28;20319;-70
2022/06/16 06:32:12;;;;;;;1.35;0.60;;;;;;;;;;20653323;28;20280;-71
2022/06/16 06:42:14;;;;;;;1.70;0.95;;;;;;;;;;20656337;28;20265;-71
2022/06/16 06:52:18;;;;;;;1.73;0.82;;;;;;;;;;20691852;28;20287;-71
2022/06/16 07:02:20;;;;;;;1.88;0.88;;;;;;;;;;20825256;28;20230;-72
2022/06/16 07:12:22;;;;;;;0.90;0.70;;;;;;;;;;20827406;28;20634;-71
2022/06/16 07:22:24;;;;;;;2.55;0.80;;;;;;;;;;20826411;28;20283;-71
2022/06/16 07:32:26;;;;;;;3.10;0.73;;;;;;;;;;20832662;28;20275;-71
2022/06/16 07:42:27;;;;;;;1.95;0.85;;;;;;;;;;20832007;28;20299;-71
2022/06/16 07:52:29;;;;;;;1.77;0.50;;;25.50;92.20;;;;;;20831833;28;20242;-71
2022/06/16 08:02:31;;;;;;;2.70;0.90;;;;;;;;;;20830137;28;20225;-71
2022/06/16 08:12:34;;;;;;;0.90;0.50;;;;;;;;;;20828331;28;20634;-71
2022/06/16 08:22:37;;;;;;;1.45;0.80;;;;;;;;;;20828563;28;20675;-71
2022/06/16 08:32:40;;;;;;;1.63;0.70;;;26.80;92.50;;;;;;20828157;28;20235;-71
2022/06/16 08:42:42;;;;;;;1.88;0.70;;;;;;;;;;20828138;28;20251;-71
2022/06/16 08:52:56;;;;;;;3.25;0.80;;;;;;;;;;20828065;28;20228;-71
2022/06/16 09:03:20;;;;;;;1.27;0.77;;;27.40;89.00;;;;;;20825894;28;20283;-70
2022/06/16 09:14:00;;;;;;;2.70;0.60;;;27.70;76.00;;;;;;20823372;28;20259;-73
2022/06/16 09:24:21;;;;;;;1.23;0.75;;;;;;;;;;20821168;28;20209;-73
2022/06/16 09:34:44;;;;;;;1.25;0.82;;;28.20;83.60;;;;;;20780937;28;20219;-72
2022/06/16 09:45:04;;;;;;;0.82;0.60;;;28.00;81.10;;;;;;20657936;28;20215;-72
2022/06/16 09:55:31;;;;;;;2.45;0.70;;;28.40;83.20;;;;;;20810541;28;20304;-70
2022/06/16 10:05:39;;;;;;;1.38;0.70;;;;;;;;;;20820177;28;20645;-70
2022/06/16 10:15:41;;;;;;;1.00;0.60;;;;;;;;;;20812193;28;20222;-70
2022/06/16 10:25:45;;;;;;;1.25;0.63;;;;;;;;;;20817023;28;20213;-70
2022/06/16 10:36:05;;;;;;;1.42;0.80;;;29.10;80.80;;;;;;20823780;28;20214;-70
2022/06/16 10:46:18;;;;;;;0.90;0.52;;;29.20;76.80;;;;;;20836582;28;20221;-70
2022/06/16 10:56:22;;;;;;;0.85;0.52;;;;;;;;;;20829756;28;20230;-70
2022/06/16 11:06:24;;;;;;;2.58;0.80;;;;;;;;;;20830655;28;20277;-70
2022/06/16 11:16:28;;;;;;;0.47;0.40;;;;;;;;;;20794695;28;20783;-70
2022/06/16 11:26:33;;;;;;;1.05;0.50;;;;;;;;;;20833582;28;20227;-70
2022/06/16 11:36:44;;;;;;;1.50;0.80;;;;;;;;;;20833151;28;20269;-71
2022/06/16 11:46:55;;;;;;;3.40;0.65;;;30.70;63.60;;;;;;20829665;28;20210;-71
2022/06/16 11:57:12;;;;;;;2.13;0.50;;;31.10;58.20;;;;;;20830710;28;20244;-71
2022/06/16 12:07:33;;;;;;;1.40;0.68;;;31.00;58.60;;;;;;20827141;28;20230;-71
2022/06/16 12:17:41;;;;;;;0.80;0.50;;;;;;;;;;20826531;28;20264;-72
2022/06/16 12:27:46;;;;;;;1.40;0.50;;;;;;;;;;20830057;28;20211;-71
2022/06/16 12:37:49;;;;;;;0.50;0.30;;;;;;;;;;20827670;28;20237;-71
2022/06/16 12:47:54;;;;;;;1.45;0.50;;;;;;;;;;20768760;28;20285;-72
2022/06/16 12:58:05;;;;;;;1.52;0.60;;;31.80;64.70;;;;;;20656514;28;20231;-72
2022/06/16 13:08:07;;;;;;;0.45;0.30;;;;;;;;;;20658713;28;20232;-71
2022/06/16 13:18:16;;;;;;;1.33;0.40;;;32.00;65.30;;;;;;20661275;28;20201;-71
2022/06/16 13:28:24;;;;;;;0.85;0.40;;;32.10;63.40;;;;;;20791472;28;20655;-71
2022/06/16 13:38:37;;;;;;;1.13;0.55;;;;;;;;;;20743406;28;20592;-71
2022/06/16 13:48:49;;;;;;;1.38;0.52;;;;;;;;;;20674594;28;20289;-72
2022/06/16 13:58:51;;;;;;;0.55;0.30;;;;;;;;;;20782733;28;20252;-71
2022/06/16 14:08:55;;;;;;;1.45;0.50;;;;;;;;;;20782786;28;20280;-71
2022/06/16 14:18:59;;;;;;;0.82;0.55;;;;;;;;;;20756155;28;20208;-71
2022/06/16 14:29:03;;;;;;;0.80;0.43;;;;;;;;;;20764417;28;20215;-69
2022/06/16 14:39:17;;;;;;;0.30;0.30;;;32.60;56.30;;;;;;20813430;28;20619;-70
2022/06/16 14:49:29;;;;;;;0.45;0.30;;;;;;;;;;20736992;28;20231;-70
2022/06/16 14:59:36;;;;;;;2.22;0.40;;;;;;;;;;20731148;28;20235;-70
2022/06/16 15:09:40;;;;;;;0.45;0.35;;;33.00;57.40;;;;;;20674538;28;20565;-71
2022/06/16 15:19:48;;;;;;;0.52;0.40;;;;;;;;;;20738106;28;20222;-69
2022/06/16 15:29:50;;;;;;;1.90;0.40;;;;;;;;;;20826021;28;20230;-69
2022/06/16 15:39:52;;;;;;;1.02;0.60;;;;;;;;;;20819985;28;20591;-72
2022/06/16 15:49:59;;;;;;;0.95;0.50;;;;;;;;;;20818666;28;20296;-72
2022/06/16 16:00:09;;;;;;;0.90;0.40;;;;;;;;;;20821521;28;20234;-69
2022/06/16 16:10:29;;;;;;;1.30;0.70;;;33.10;59.50;;;;;;20795501;28;20273;-72
2022/06/16 16:20:48;;;;;;;1.42;0.50;;;33.00;56.00;;;;;;20816361;28;20227;-70
2022/06/16 16:30:52;;;;;;;0.70;0.40;;;32.70;59.00;;;;;;20820496;28;20601;-69
2022/06/16 16:51:18;;;;;;;0.57;0.32;;;31.90;51.80;;;;;;20740289;28;20231;-69
2022/06/16 17:01:21;;;;;;;0.85;0.40;;;;;;;;;;20738397;28;20231;-69
2022/06/16 17:21:43;;;;;;;1.98;0.57;;;31.10;54.80;;;;;;20734782;28;20199;-69
2022/06/16 17:31:46;;;;;;;1.02;0.30;;;;;;;;;;20734374;28;20277;-69
2022/06/16 17:41:47;;;;;;;0.30;0.30;;;;;;;;;;20716151;28;20703;-69
2022/06/16 18:02:15;;;;;;;0.85;0.40;;;;;;;;;;20674409;28;20246;-69
2022/06/16 18:12:31;;;;;;;0.80;0.30;;;30.00;65.20;;;;;;20724121;28;20563;-69
2022/06/16 18:22:35;;;;;;;0.50;0.30;;;;;;;;;;20788652;28;20206;-69
2022/06/16 18:32:37;;;;;;;1.30;0.40;;;;;;;;;;20783577;28;20280;-69
2022/06/16 18:42:40;;;;;;;0.47;0.15;;;;;;;;;;20701597;28;20277;-69
2022/06/16 18:52:41;;;;;;;0.45;0.20;;;;;;;;;;20800056;28;20284;-69
2022/06/16 19:02:45;;;;;;;2.35;0.55;;;;;;;;;;20783507;28;20650;-69
2022/06/16 19:12:47;;;;;;;1.13;0.32;;;;;;;;;;20770507;28;20793;-69
2022/06/16 19:22:49;;;;;;;0.50;0.30;;;;;;;;;;20824819;28;20284;-69
2022/06/16 19:32:52;;;;;;;0.40;0.30;;;29.00;70.90;;;;;;20825883;28;20252;-69
2022/06/16 19:42:55;;;;;;;2.42;0.40;;;;;;;;;;20697968;28;20695;-69
2022/06/16 19:52:59;;;;;;;0.50;0.30;;;;;;;;;;20717516;28;20579;-69
2022/06/16 20:03:01;;;;;;;0.32;0.20;;;;;;;;;;20654619;28;20245;-70
2022/06/16 20:13:06;;;;;;;0.20;0.20;;;;;;;;;;20657351;28;20293;-69
2022/06/16 20:23:16;;;;;;;0.75;0.40;;;;;;;;;;20798155;28;20225;-69
2022/06/16 20:33:19;;;;;;;0.38;0.30;;;;;;;;;;20816122;28;20725;-69
2022/06/16 20:43:21;;;;;;;0.52;0.40;;;27.70;63.40;;;;;;20819368;28;20487;-68
2022/06/16 20:53:23;;;;;;;0.57;0.30;;;;;;;;;;20793021;28;20275;-69
2022/06/16 21:03:27;;;;;;;1.65;0.50;;;;;;;;;;20815098;28;20234;-70
2022/06/16 21:13:29;;;;;;;0.95;0.20;;;;;;;;;;20815575;28;20262;-69
2022/06/16 21:23:34;;;;;;;0.43;0.30;;;27.40;70.20;;;;;;20811065;28;20233;-70
2022/06/16 21:33:40;;;;;;;2.22;0.50;;;;;;;;;;20811851;28;20213;-69
2022/06/16 21:43:45;;;;;;;1.00;0.40;;;;;;;;;;20821560;28;20209;-70
2022/06/16 21:53:48;;;;;;;1.38;0.30;;;;;;;;;;20822940;28;20708;-69
2022/06/16 22:03:56;;;;;;;1.15;0.25;;;;;;;;;;20806849;28;20320;-69
2022/06/16 22:13:58;;;;;;;0.20;0.20;;;26.60;75.70;;;;;;20819167;28;20279;-69
2022/06/16 22:24:00;;;;;;;1.75;0.30;;;;;;;;;;20821715;28;20213;-69
2022/06/16 22:34:03;;;;;;;0.40;0.30;;;;;;;;;;20777254;28;20694;-69
2022/06/16 22:44:07;;;;;;;0.30;0.30;;;;;;;;;;20722818;28;20248;-69
2022/06/16 23:04:31;;;;;;;0.95;0.30;;;25.90;80.70;;;;;;20816199;28;20630;-70
2022/06/16 23:14:33;;;;;;;0.30;0.30;;;;;;;;;;20818455;28;20496;-69
2022/06/16 23:24:35;;;;;;;1.33;0.40;;;;;;;;;;20819524;28;20704;-69
2022/06/16 23:35:02;;;;;;;0.82;0.40;;;;;;;;;;20798419;28;20225;-70
2022/06/16 23:45:05;;;;;;;0.43;0.30;;;;;;;;;;20825997;28;20619;-70
2022/06/16 23:55:12;;;;;;;0.40;0.32;;;;;;;;;;20832150;28;20288;-69
